Time;durP1;ratioP1;P1;durP2;ratioP2;P2;SDS_P1;SDS_P2;PMS_P1;PMS_P2;Temp;Humidity;BMP_temperature;BMP_pressure;BME280_temperature;BME280_humidity;BME280_pressure;Samples;Min_cycle;Max_cycle;Signal;HPM_P1;HPM_P2
2022/11/08 00:02:08;;;;;;;4.47;2.60;;;;;;;8.65;94.21;99254.52;1654080;86;21493;-65
2022/11/08 00:04:35;;;;;;;3.65;2.47;;;;;;;8.67;94.34;99254.00;1674295;83;20925;-65
2022/11/08 00:15:17;;;;;;;4.45;2.72;;;;;;;8.81;94.48;99253.34;1678920;85;20915;-65
2022/11/08 00:17:43;;;;;;;5.62;2.90;;;;;;;8.84;94.47;99253.20;1659376;85;20993;-65
2022/11/08 00:20:10;;;;;;;4.90;2.60;;;;;;;8.89;94.53;99251.69;1659876;86;20915;-65
2022/11/08 00:22:37;;;;;;;5.60;2.85;;;;;;;8.94;94.57;99258.83;1662338;86;20985;-65
2022/11/08 00:25:05;;;;;;;5.78;2.95;;;;;;;8.97;94.60;99253.47;1680944;84;20996;-65
2022/11/08 00:27:31;;;;;;;;;;;;;;;8.98;94.62;99257.75;1656291;84;20904;-65
2022/11/08 00:29:57;;;;;;;6.40;2.55;;;;;;;9.00;94.61;99262.44;1642947;85;20130;-65
2022/11/08 00:32:25;;;;;;;7.42;2.80;;;;;;;9.00;94.56;99263.73;1650841;86;20990;-65
2022/11/08 00:34:52;;;;;;;4.78;2.75;;;;;;;9.00;94.52;99261.13;1671966;85;21150;-65
2022/11/08 00:37:21;;;;;;;4.72;2.50;;;;;;;8.99;94.52;99262.49;1669279;83;20939;-65
2022/11/08 00:39:48;;;;;;;5.47;2.98;;;;;;;8.96;94.46;99265.65;1661385;85;20955;-65
2022/11/08 00:42:15;;;;;;;4.58;2.98;;;;;;;8.93;94.46;99267.53;1665971;86;20958;-65
2022/11/08 00:44:41;;;;;;;6.80;2.40;;;;;;;8.86;94.59;99268.77;1682216;85;20975;-65
2022/11/08 00:47:08;;;;;;;6.30;2.25;;;;;;;8.84;94.50;99267.98;1664706;85;21387;-65
2022/11/08 00:49:35;;;;;;;8.68;2.77;;;;;;;8.84;94.57;99267.52;1651624;84;20930;-65
2022/11/08 00:52:01;;;;;;;5.00;2.70;;;;;;;8.85;94.76;99259.24;1673095;85;21183;-65
2022/11/08 00:54:28;;;;;;;5.07;2.10;;;;;;;8.88;94.81;99259.13;1650632;85;20926;-65
2022/11/08 00:56:55;;;;;;;5.57;2.77;;;;;;;8.87;94.76;99258.72;1663469;86;20946;-65
2022/11/08 00:59:21;;;;;;;5.70;2.50;;;;;;;8.88;94.78;99261.73;1682591;85;21136;-65
2022/11/08 01:01:48;;;;;;;6.15;2.55;;;;;;;8.87;94.63;99262.63;1662902;85;21500;-65
2022/11/08 01:04:17;;;;;;;7.13;2.70;;;;;;;8.86;94.62;99264.39;1682562;84;21497;-65
2022/11/08 01:06:44;;;;;;;7.08;2.72;;;;;;;8.80;94.64;99261.25;1682294;83;20955;-65
2022/11/08 01:09:11;;;;;;;6.92;2.75;;;;;;;8.78;94.60;99252.66;1640092;86;21061;-65
2022/11/08 01:11:44;;;;;;;5.60;2.23;;;;;;;8.73;94.69;99248.50;1661935;85;21112;-65
2022/11/08 01:14:08;;;;;;;6.17;2.47;;;;;;;8.70;94.84;99252.55;1654339;85;20884;-65
2022/11/08 01:16:35;;;;;;;;;;;;;;;8.68;94.79;99247.89;1674850;83;21473;-65
2022/11/08 01:19:01;;;;;;;6.17;3.70;;;;;;;8.64;94.77;99254.14;1660697;85;20533;-65
2022/11/08 01:21:29;;;;;;;5.90;2.52;;;;;;;8.59;94.77;99249.61;1671125;85;20978;-65
2022/11/08 01:23:56;;;;;;;6.72;2.60;;;;;;;8.56;94.80;99239.80;1651355;85;26556;-65
2022/11/08 01:26:26;;;;;;;4.50;2.85;;;;;;;8.52;94.78;99250.82;1666732;86;20926;-65
2022/11/08 01:28:54;;;;;;;8.28;3.65;;;;;;;8.45;94.75;99241.13;1678321;83;21005;-65
2022/11/08 01:31:23;;;;;;;;;;;;;;;8.44;94.81;99238.63;1682844;84;20923;-65
2022/11/08 01:33:50;;;;;;;6.17;3.33;;;;;;;8.40;94.90;99239.66;1668889;86;20140;-65
2022/11/08 01:36:22;;;;;;;5.42;2.65;;;;;;;8.36;94.93;99249.80;1669833;84;21484;-65
2022/11/08 01:38:50;;;;;;;5.08;2.40;;;;;;;8.33;94.92;99249.95;1659099;84;21497;-65
2022/11/08 01:41:18;;;;;;;;;;;;;;;8.27;94.88;99245.41;1682995;83;21483;-65
2022/11/08 01:43:50;;;;;;;5.25;3.27;;;;;;;8.21;94.89;99240.48;1660738;84;20142;-65
2022/11/08 01:46:38;;;;;;;6.22;2.87;;;;;;;8.16;94.96;99243.74;1698551;83;21556;-65
2022/11/08 01:52:46;;;;;;;7.62;3.50;;;;;;;8.08;95.03;99239.34;1694928;83;20946;-65
2022/11/08 01:55:21;;;;;;;8.23;3.55;;;;;;;8.03;95.00;99237.39;1652277;85;20947;-65
2022/11/08 01:57:52;;;;;;;5.42;3.30;;;;;;;7.98;94.99;99241.52;1620125;87;21020;-65
2022/11/08 02:00:19;;;;;;;6.72;3.35;;;;;;;7.96;95.13;99241.20;1648031;86;20898;-65
2022/11/08 02:02:51;;;;;;;7.90;4.42;;;;;;;7.94;95.18;99239.11;1620842;86;21404;-65
2022/11/08 02:05:25;;;;;;;8.00;3.83;;;;;;;7.94;95.27;99237.81;1647130;87;20962;-65
2022/11/08 02:08:23;;;;;;;7.17;3.67;;;;;;;7.93;95.27;99235.67;1648585;85;20971;-65
2022/11/08 02:10:52;;;;;;;7.15;3.30;;;;;;;7.94;95.15;99237.81;1618596;86;20978;-65
2022/11/08 02:13:25;;;;;;;8.75;3.45;;;;;;;7.92;95.17;99240.47;1648626;84;20919;-65
2022/11/08 02:15:52;;;;;;;9.15;3.77;;;;;;;7.95;95.28;99238.19;1645644;85;21127;-65
2022/11/08 02:18:23;;;;;;;5.75;3.08;;;;;;;7.95;95.24;99235.59;1647526;85;21005;-65
2022/11/08 02:21:07;;;;;;;5.87;3.40;;;;;;;7.95;95.20;99230.39;1648473;85;21011;-65
2022/11/08 02:23:49;;;;;;;11.05;3.92;;;;;;;7.93;95.19;99233.54;1627503;85;20957;-65
2022/11/08 02:26:23;;;;;;;6.33;3.02;;;;;;;7.92;95.22;99234.43;1620948;86;21507;-65
2022/11/08 02:28:50;;;;;;;7.33;3.45;;;;;;;7.92;95.21;99233.13;1648351;85;21004;-65
2022/11/08 02:31:19;;;;;;;9.35;3.83;;;;;;;7.88;95.14;99234.19;1632591;85;21035;-65
2022/11/08 02:33:47;;;;;;;5.08;3.45;;;;;;;7.83;95.06;99226.13;1699028;84;21142;-65
2022/11/08 02:36:21;;;;;;;5.40;4.17;;;;;;;7.78;95.01;99228.07;1679645;83;21547;-65
2022/11/08 02:38:52;;;;;;;7.75;3.80;;;;;;;7.73;95.07;99231.35;1678572;83;20958;-65
2022/11/08 02:41:21;;;;;;;7.83;3.85;;;;;;;7.68;95.01;99234.59;1674360;83;21143;-65
2022/11/08 02:43:47;;;;;;;6.42;3.85;;;;;;;7.66;95.07;99235.11;1688807;84;20942;-65
2022/11/08 02:46:14;;;;;;;7.62;3.92;;;;;;;7.62;95.14;99249.16;1685577;83;21001;-65
2022/11/08 02:48:41;;;;;;;5.97;3.20;;;;;;;7.67;94.96;99240.69;1693875;83;20946;-65
2022/11/08 02:51:07;;;;;;;5.95;3.80;;;;;;;7.58;95.35;99246.28;1654452;85;21320;-65
2022/11/08 02:53:34;;;;;;;8.25;3.85;;;;;;;7.56;95.50;99244.20;1670013;85;21373;-65
2022/11/08 02:56:01;;;;;;;6.87;3.60;;;;;;;7.56;95.53;99245.50;1689863;83;20875;-65
2022/11/08 02:58:28;;;;;;;7.42;3.95;;;;;;;7.55;95.60;99239.92;1686372;83;21001;-65
2022/11/08 03:00:54;;;;;;;4.13;3.27;;;;;;;7.56;95.73;99240.30;1684057;84;20955;-65
2022/11/08 03:03:21;;;;;;;8.60;4.03;;;;;;;7.54;95.68;99238.25;1677461;84;20949;-65
2022/11/08 03:05:47;;;;;;;6.43;4.03;;;;;;;7.52;95.83;99238.30;1682248;84;21073;-65
2022/11/08 03:08:15;;;;;;;10.90;4.25;;;;;;;7.53;95.84;99235.23;1669812;84;21111;-65
2022/11/08 03:10:41;;;;;;;5.92;4.15;;;;;;;7.53;95.90;99240.44;1667500;84;20981;-65
2022/11/08 03:13:08;;;;;;;12.68;4.17;;;;;;;7.53;95.97;99243.03;1657087;84;20930;-65
2022/11/08 03:15:34;;;;;;;5.58;3.77;;;;;;;7.53;96.06;99241.73;1653063;84;20954;-65
2022/11/08 03:18:01;;;;;;;5.30;4.30;;;;;;;7.54;96.07;99244.28;1648142;85;23690;-64
2022/11/08 03:20:28;;;;;;;4.77;3.73;;;;;;;7.55;96.14;99244.66;1649181;84;21504;-65
2022/11/08 03:23:00;;;;;;;6.58;4.00;;;;;;;7.57;96.03;99243.31;1686162;83;21496;-65
2022/11/08 03:25:26;;;;;;;8.35;4.50;;;;;;;7.60;96.12;99243.17;1686458;84;20942;-65
2022/11/08 03:27:53;;;;;;;6.77;3.30;;;;;;;7.63;96.22;99245.64;1698952;83;20939;-65
2022/11/08 03:30:21;;;;;;;8.17;3.90;;;;;;;7.65;96.20;99242.53;1675384;84;22192;-65
2022/11/08 03:32:49;;;;;;;6.45;3.85;;;;;;;7.66;96.25;99240.31;1685421;84;20926;-65
2022/11/08 03:35:16;;;;;;;7.50;4.37;;;;;;;7.70;96.30;99240.59;1689680;83;21026;-65
2022/11/08 03:37:50;;;;;;;4.17;2.77;;;;;;;7.72;96.32;99240.04;1691371;84;21449;-65
2022/11/08 03:40:17;;;;;;;8.33;4.45;;;;;;;7.76;96.41;99241.61;1696691;83;20946;-65
2022/11/08 03:42:44;;;;;;;6.47;4.43;;;;;;;7.81;96.50;99247.46;1684263;83;21051;-65
2022/11/08 03:45:12;;;;;;;5.47;4.22;;;;;;;7.82;96.46;99240.04;1672831;84;20948;-65
2022/11/08 03:47:41;;;;;;;5.90;4.12;;;;;;;7.84;96.41;99240.83;1678883;84;20990;-65
2022/11/08 03:50:09;;;;;;;8.60;4.50;;;;;;;7.84;96.37;99239.52;1692981;84;20953;-65
2022/11/08 03:52:51;;;;;;;7.55;4.03;;;;;;;7.84;96.37;99239.52;1689412;83;21073;-65
2022/11/08 03:55:22;;;;;;;6.35;2.95;;;;;;;7.87;96.41;99246.78;1680028;84;21766;-65
2022/11/08 03:57:50;;;;;;;7.55;4.03;;;;;;;7.84;96.51;99244.73;1671517;84;20936;-65
2022/11/08 04:00:20;;;;;;;7.78;3.67;;;;;;;7.85;96.64;99247.70;1692727;83;20918;-65
2022/11/08 04:02:48;;;;;;;4.67;3.10;;;;;;;7.89;96.62;99252.77;1699068;83;21043;-65
2022/11/08 04:05:16;;;;;;;6.42;3.58;;;;;;;7.91;96.66;99252.25;1668915;84;20903;-65
2022/11/08 04:07:42;;;;;;;8.55;3.92;;;;;;;7.92;96.63;99247.42;1689573;83;21088;-65
2022/11/08 04:10:10;;;;;;;8.80;4.62;;;;;;;7.93;96.74;99250.44;1681263;83;20973;-65
2022/11/08 04:15:28;;;;;;;8.98;3.95;;;;;;;7.96;96.92;99245.09;1684040;84;20953;-65
2022/11/08 04:23:27;;;;;;;;;;;;;;;8.06;96.99;99233.36;1649349;84;20926;-65
2022/11/08 04:26:01;;;;;;;8.75;3.98;;;;;;;8.09;97.05;99242.31;1686678;84;20422;-65
2022/11/08 04:28:30;;;;;;;7.85;3.33;;;;;;;8.11;97.08;99241.80;1700381;83;21464;-65
2022/11/08 04:31:11;;;;;;;4.65;2.90;;;;;;;8.13;97.21;99246.48;1676457;84;21025;-65
2022/11/08 04:33:38;;;;;;;9.25;3.05;;;;;;;8.16;97.23;99248.95;1685903;83;21050;-65
2022/11/08 04:36:10;;;;;;;5.97;3.10;;;;;;;8.19;97.28;99252.70;1676158;84;21563;-65
2022/11/08 04:38:37;;;;;;;5.37;3.72;;;;;;;8.22;97.28;99249.96;1672750;84;21265;-65
2022/11/08 04:41:13;;;;;;;6.72;3.20;;;;;;;8.25;97.36;99244.63;1671577;85;20923;-65
2022/11/08 04:43:40;;;;;;;6.22;3.40;;;;;;;8.28;97.41;99244.48;1675088;83;20971;-65
2022/11/08 04:46:11;;;;;;;5.20;3.12;;;;;;;8.33;97.44;99247.34;1695825;83;22359;-65
2022/11/08 04:48:38;;;;;;;11.95;3.60;;;;;;;8.38;97.49;99249.28;1695556;82;20890;-65
2022/11/08 04:51:10;;;;;;;5.40;2.55;;;;;;;8.41;97.48;99253.08;1686446;83;20918;-65
2022/11/08 04:53:37;;;;;;;7.42;3.15;;;;;;;8.44;97.51;99243.83;1680374;84;21661;-65
2022/11/08 04:56:08;;;;;;;5.83;2.85;;;;;;;8.47;97.48;99242.38;1688978;82;21009;-65
2022/11/08 04:58:38;;;;;;;8.50;3.50;;;;;;;8.50;97.45;99240.94;1683551;83;21048;-65
2022/11/08 05:01:07;;;;;;;7.28;3.05;;;;;;;8.52;97.42;99241.72;1658325;84;20904;-65
2022/11/08 05:03:34;;;;;;;5.92;3.00;;;;;;;8.53;97.44;99243.39;1670745;84;20933;-65
2022/11/08 05:06:09;;;;;;;5.58;2.92;;;;;;;8.55;97.49;99237.67;1674634;84;20962;-65
2022/11/08 05:08:36;;;;;;;5.05;2.80;;;;;;;8.57;97.56;99228.04;1684232;83;20915;-65
2022/11/08 05:11:09;;;;;;;6.90;2.87;;;;;;;8.60;97.56;99234.83;1700142;83;21857;-65
2022/11/08 05:13:37;;;;;;;7.53;3.05;;;;;;;8.61;97.49;99237.38;1685579;83;20939;-65
2022/11/08 05:16:08;;;;;;;6.20;2.90;;;;;;;8.61;97.46;99233.47;1689702;83;21557;-65
2022/11/08 05:18:34;;;;;;;7.15;3.00;;;;;;;8.61;97.45;99239.98;1697654;84;21460;-65
2022/11/08 05:23:48;;;;;;;8.35;3.12;;;;;;;8.58;97.41;99232.31;1694206;83;21876;-65
2022/11/08 05:26:17;;;;;;;6.37;3.87;;;;;;;8.56;97.42;99237.20;1698209;83;21110;-65
2022/11/08 05:28:44;;;;;;;6.28;2.75;;;;;;;8.53;97.46;99243.39;1695267;82;20912;-65
2022/11/08 05:31:11;;;;;;;6.97;3.45;;;;;;;8.52;97.46;99248.22;1671312;84;21023;-65
2022/11/08 05:33:38;;;;;;;5.92;3.25;;;;;;;8.52;97.48;99241.72;1669124;83;20938;-65
2022/11/08 05:36:09;;;;;;;9.23;3.30;;;;;;;8.52;97.48;99241.72;1670319;84;21881;-65
2022/11/08 05:38:36;;;;;;;6.37;3.20;;;;;;;8.51;97.49;99242.61;1673350;83;21489;-65
2022/11/08 05:41:06;;;;;;;6.55;3.42;;;;;;;8.50;97.53;99246.98;1680972;85;21472;-65
2022/11/08 05:43:33;;;;;;;4.90;2.80;;;;;;;8.49;97.50;99244.46;1662962;85;21485;-65
2022/11/08 05:45:59;;;;;;;5.67;2.83;;;;;;;8.48;97.49;99255.77;1680163;85;20895;-65
2022/11/08 05:48:26;;;;;;;6.33;3.20;;;;;;;8.48;97.50;99255.30;1652652;86;21069;-65
2022/11/08 05:50:54;;;;;;;8.50;2.97;;;;;;;8.49;97.48;99265.28;1645604;86;20943;-65
2022/11/08 05:53:20;;;;;;;;;;;;;;;8.49;97.49;99262.21;1651675;85;21000;-65
2022/11/08 05:55:47;;;;;;;7.85;3.40;;;;;;;8.50;97.49;99264.35;1668487;85;20148;-65
2022/11/08 05:58:15;;;;;;;5.17;2.80;;;;;;;8.49;97.54;99270.02;1680730;85;24619;-65
2022/11/08 06:00:41;;;;;;;4.12;3.08;;;;;;;8.51;97.55;99271.23;1667728;84;21133;-65
2022/11/08 06:03:08;;;;;;;9.05;3.22;;;;;;;8.49;97.49;99267.88;1679690;85;20930;-65
2022/11/08 06:05:35;;;;;;;5.93;3.17;;;;;;;8.48;97.51;99272.67;1665531;84;20971;-65
2022/11/08 06:08:02;;;;;;;6.47;3.17;;;;;;;8.49;97.49;99265.28;1678142;85;20919;-65
2022/11/08 06:10:28;;;;;;;7.80;3.10;;;;;;;8.50;97.58;99268.25;1653156;85;21508;-65
2022/11/08 06:13:00;;;;;;;7.67;3.35;;;;;;;8.50;97.54;99278.66;1663349;84;21272;-65
2022/11/08 06:15:27;;;;;;;5.60;2.95;;;;;;;8.51;97.54;99285.55;1657939;85;21050;-65
2022/11/08 06:17:56;;;;;;;9.00;3.07;;;;;;;8.52;97.63;99285.95;1679801;85;21490;-65
2022/11/08 06:20:23;;;;;;;4.47;2.77;;;;;;;8.56;97.70;99279.67;1654514;85;21126;-65
2022/11/08 06:22:49;;;;;;;5.37;2.90;;;;;;;8.58;97.61;99285.66;1660189;85;20962;-65
2022/11/08 06:25:18;;;;;;;4.40;2.92;;;;;;;8.59;97.70;99282.13;1675743;85;21039;-65
2022/11/08 06:27:45;;;;;;;7.30;3.42;;;;;;;8.60;97.71;99286.45;1651110;85;21457;-65
2022/11/08 06:30:13;;;;;;;7.22;2.65;;;;;;;8.62;97.76;99288.50;1651392;86;21036;-64
2022/11/08 06:32:40;;;;;;;4.92;3.00;;;;;;;8.65;97.87;99287.05;1662283;84;20923;-65
2022/11/08 06:35:08;;;;;;;6.67;3.85;;;;;;;8.68;97.94;99280.43;1679715;83;21385;-65
2022/11/08 06:37:34;;;;;;;8.30;3.35;;;;;;;8.72;97.99;99279.36;1671981;84;21063;-65
2022/11/08 06:40:01;;;;;;;4.27;3.00;;;;;;;8.76;98.06;99271.41;1699681;83;20965;-65
2022/11/08 06:42:28;;;;;;;6.80;3.42;;;;;;;8.80;98.04;99283.38;1671216;84;20985;-65
2022/11/08 06:44:54;;;;;;;5.80;2.80;;;;;;;8.83;97.98;99289.73;1670132;84;21015;-65
2022/11/08 06:47:21;;;;;;;3.75;2.98;;;;;;;8.85;98.09;99285.27;1687882;83;20922;-65
2022/11/08 06:49:48;;;;;;;6.58;4.37;;;;;;;8.87;97.99;99278.25;1699740;84;21072;-65
2022/11/08 06:52:15;;;;;;;9.73;4.30;;;;;;;8.91;98.02;99282.41;1697893;83;21511;-65
2022/11/08 06:54:41;;;;;;;5.83;3.50;;;;;;;8.94;97.96;99283.56;1673396;84;21159;-64
2022/11/08 06:57:08;;;;;;;8.20;3.55;;;;;;;8.97;97.94;99287.32;1671710;84;21504;-65
2022/11/08 06:59:34;;;;;;;6.60;3.10;;;;;;;9.00;98.00;99275.45;1690765;83;20923;-66
2022/11/08 07:02:01;;;;;;;8.57;4.13;;;;;;;9.05;98.07;99277.38;1689474;83;20958;-65
2022/11/08 07:04:28;;;;;;;6.97;3.80;;;;;;;9.07;98.01;99280.73;1693710;83;21228;-65
2022/11/08 07:06:55;;;;;;;6.08;3.95;;;;;;;9.10;98.03;99279.31;1692359;83;21383;-65
2022/11/08 07:09:22;;;;;;;;;;;;;;;9.13;97.99;99280.47;1688313;83;20961;-65
2022/11/08 07:11:48;;;;;;;9.38;4.12;;;;;;;9.16;98.06;99277.70;1683888;83;20099;-65
2022/11/08 07:14:15;;;;;;;5.13;3.27;;;;;;;9.22;98.12;99275.73;1698460;83;21321;-65
2022/11/08 07:16:41;;;;;;;8.98;3.70;;;;;;;9.27;98.13;99281.53;1687491;83;20995;-65
2022/11/08 07:19:08;;;;;;;8.78;4.58;;;;;;;9.30;98.02;99280.08;1693530;83;20958;-65
2022/11/08 07:21:35;;;;;;;9.17;3.73;;;;;;;9.32;98.06;99277.78;1686928;83;21017;-66
2022/11/08 07:24:02;;;;;;;7.22;3.37;;;;;;;9.34;98.08;99281.16;1699453;84;21005;-65
2022/11/08 07:26:29;;;;;;;5.35;2.85;;;;;;;9.41;98.14;99277.81;1690251;83;21773;-65
2022/11/08 07:28:55;;;;;;;8.28;3.30;;;;;;;9.45;98.24;99272.82;1696716;83;20934;-65
2022/11/08 07:31:22;;;;;;;9.27;3.23;;;;;;;9.50;98.26;99273.44;1672485;84;20959;-65
2022/11/08 07:33:49;;;;;;;4.72;2.58;;;;;;;9.53;98.14;99281.10;1670546;83;20966;-65
2022/11/08 07:36:16;;;;;;;6.20;3.15;;;;;;;9.56;98.10;99280.95;1690262;83;20940;-65
2022/11/08 07:38:43;;;;;;;6.40;3.20;;;;;;;9.57;98.11;99281.31;1673900;84;21210;-65
2022/11/08 07:41:10;;;;;;;7.12;2.80;;;;;;;9.65;98.39;99283.55;1662624;85;21049;-67
2022/11/08 07:43:37;;;;;;;5.97;2.77;;;;;;;9.69;98.24;99280.31;1676954;83;20963;-66
2022/11/08 07:46:03;;;;;;;7.42;3.22;;;;;;;9.72;98.32;99277.55;1653689;85;21020;-65
2022/11/08 07:48:30;;;;;;;6.85;3.42;;;;;;;9.77;98.35;99282.08;1653634;85;20988;-66
2022/11/08 07:50:57;;;;;;;10.82;3.75;;;;;;;9.80;98.22;99276.70;1675980;84;21043;-65
2022/11/08 07:53:24;;;;;;;7.45;3.22;;;;;;;9.83;98.26;99275.24;1649594;86;20984;-65
2022/11/08 07:55:52;;;;;;;4.45;2.85;;;;;;;9.88;98.24;99278.45;1667703;85;20978;-66
2022/11/08 07:58:18;;;;;;;5.08;3.10;;;;;;;9.92;98.24;99277.40;1681769;85;21505;-65
2022/11/08 08:00:45;;;;;;;8.15;3.85;;;;;;;9.94;98.19;99272.95;1669333;85;21481;-66
2022/11/08 08:03:13;;;;;;;6.85;3.12;;;;;;;10.00;98.26;99267.41;1682030;84;21047;-65
2022/11/08 08:05:42;;;;;;;6.95;3.90;;;;;;;10.07;98.37;99269.23;1659029;85;20941;-66
2022/11/08 08:08:11;;;;;;;7.45;3.25;;;;;;;10.16;98.54;99267.90;1676281;84;21089;-65
2022/11/08 08:10:39;;;;;;;4.83;2.90;;;;;;;10.22;98.55;99266.27;1677761;84;21547;-65
2022/11/08 08:13:06;;;;;;;4.80;3.10;;;;;;;10.27;98.41;99262.98;1667682;85;20972;-65
2022/11/08 08:15:33;;;;;;;4.50;2.83;;;;;;;10.33;98.58;99261.34;1679315;85;21010;-65
2022/11/08 08:18:02;;;;;;;7.35;2.77;;;;;;;10.39;98.59;99258.44;1660010;85;21533;-65
2022/11/08 08:20:30;;;;;;;6.17;3.12;;;;;;;10.45;98.45;99262.02;1681906;83;20990;-65
2022/11/08 08:22:58;;;;;;;6.70;3.40;;;;;;;10.50;98.51;99258.70;1643727;85;20935;-65
2022/11/08 08:25:26;;;;;;;5.50;2.52;;;;;;;10.64;98.81;99264.91;1662472;85;21143;-65
2022/11/08 08:27:56;;;;;;;7.28;2.72;;;;;;;10.80;99.06;99270.98;1680605;84;21818;-65
2022/11/08 08:30:24;;;;;;;8.25;3.05;;;;;;;10.97;99.01;99264.34;1668514;85;20975;-65
2022/11/08 08:32:51;;;;;;;5.65;3.10;;;;;;;11.12;98.82;99264.44;1682630;85;21481;-66
2022/11/08 08:35:18;;;;;;;9.38;2.80;;;;;;;11.20;98.51;99260.89;1662652;85;20980;-65
2022/11/08 08:37:47;;;;;;;6.23;2.60;;;;;;;11.29;98.47;99260.39;1681959;84;20958;-65
2022/11/08 08:40:13;;;;;;;7.08;2.80;;;;;;;11.31;98.27;99258.50;1666448;84;21321;-65
2022/11/08 08:42:40;;;;;;;6.33;2.30;;;;;;;11.39;98.54;99262.83;1682588;85;20915;-64
2022/11/08 08:45:09;;;;;;;4.92;2.70;;;;;;;11.55;98.74;99260.64;1660908;85;21623;-66
2022/11/08 08:47:36;;;;;;;4.70;2.40;;;;;;;11.68;98.73;99267.28;1682528;85;21464;-65
2022/11/08 08:50:03;;;;;;;4.67;2.40;;;;;;;11.82;98.59;99265.55;1653425;85;20931;-66
2022/11/08 08:52:29;;;;;;;7.30;3.70;;;;;;;11.91;98.34;99264.66;1655791;85;21215;-66
2022/11/08 08:54:56;;;;;;;5.33;2.50;;;;;;;11.95;98.18;99264.84;1655746;85;20959;-65
2022/11/08 08:57:23;;;;;;;3.50;2.43;;;;;;;11.98;98.11;99260.73;1676735;84;20974;-64
2022/11/08 08:59:51;;;;;;;5.00;2.43;;;;;;;12.03;97.83;99266.53;1651986;86;20901;-65
2022/11/08 09:02:17;;;;;;;6.85;2.60;;;;;;;12.12;98.34;99260.73;1654380;85;21203;-66
2022/11/08 09:04:44;;;;;;;5.15;2.70;;;;;;;12.22;98.13;99267.09;1658975;86;21864;-65
2022/11/08 09:07:11;;;;;;;6.50;2.90;;;;;;;12.27;97.74;99266.83;1660930;85;20908;-65
2022/11/08 09:09:37;;;;;;;5.57;2.23;;;;;;;12.21;97.22;99265.42;1674981;84;21547;-64
2022/11/08 09:12:05;;;;;;;5.67;2.60;;;;;;;12.11;96.92;99268.22;1654795;85;21542;-65
2022/11/08 09:14:31;;;;;;;7.37;2.40;;;;;;;12.12;97.44;99273.81;1656743;85;20968;-65
2022/11/08 09:16:58;;;;;;;4.95;2.58;;;;;;;12.14;97.41;99274.57;1654939;85;21003;-65
2022/11/08 09:19:25;;;;;;;5.92;2.65;;;;;;;12.09;97.06;99270.08;1669484;85;21520;-65
2022/11/08 09:21:52;;;;;;;7.30;2.85;;;;;;;12.04;96.92;99275.61;1666794;84;20959;-66
2022/11/08 09:24:19;;;;;;;9.30;3.00;;;;;;;12.04;97.20;99272.13;1671630;85;20947;-65
2022/11/08 09:26:46;;;;;;;5.58;3.25;;;;;;;12.07;97.10;99268.02;1670305;85;21138;-65
2022/11/08 09:29:12;;;;;;;6.85;2.72;;;;;;;12.10;97.13;99267.86;1680113;85;21042;-64
2022/11/08 09:31:39;;;;;;;8.60;3.30;;;;;;;12.19;97.54;99275.14;1655148;85;20976;-65
2022/11/08 09:34:06;;;;;;;10.20;2.92;;;;;;;12.35;97.67;99274.19;1653153;85;21223;-65
2022/11/08 09:36:33;;;;;;;5.50;2.22;;;;;;;12.44;97.63;99282.33;1661198;84;20999;-65
2022/11/08 09:39:00;;;;;;;4.95;2.35;;;;;;;12.56;97.27;99280.72;1679274;83;20892;-65
2022/11/08 09:42:04;;;;;;;4.92;2.12;;;;;;;12.53;96.60;99275.67;1630536;86;21027;-65
2022/11/08 09:45:09;;;;;;;4.25;2.20;;;;;;;12.48;96.71;99275.12;1612730;87;21639;-66
2022/11/08 09:47:39;;;;;;;7.08;2.55;;;;;;;12.45;96.65;99281.85;1625505;87;20931;-66
2022/11/08 09:50:31;;;;;;;5.05;2.42;;;;;;;12.38;96.43;99288.39;1625099;87;20993;-66
2022/11/08 09:53:17;;;;;;;5.05;2.17;;;;;;;12.44;96.94;99284.11;1621478;87;20987;-66
2022/11/08 09:56:20;;;;;;;7.23;2.37;;;;;;;12.59;97.00;99291.00;1604616;87;21099;-66
2022/11/08 09:59:03;;;;;;;4.97;1.98;;;;;;;12.74;97.30;99287.44;1622420;87;21605;-66
2022/11/08 10:01:33;;;;;;;7.37;2.60;;;;;;;12.86;96.95;99283.67;1610858;87;20986;-66
2022/11/08 10:04:20;;;;;;;5.17;2.40;;;;;;;13.03;96.75;99284.73;1620587;87;21015;-66
2022/11/08 10:07:12;;;;;;;4.90;2.40;;;;;;;13.19;97.24;99274.08;1630739;87;20986;-66
2022/11/08 10:09:59;;;;;;;3.98;2.62;;;;;;;13.38;97.11;99265.88;1598148;87;21898;-66
2022/11/08 10:13:21;;;;;;;5.78;2.83;;;;;;;13.59;97.01;99269.72;1628940;87;21523;-66
2022/11/08 10:15:59;;;;;;;5.17;2.40;;;;;;;13.61;96.19;99266.52;1623225;87;21623;-66
2022/11/08 10:18:50;;;;;;;6.00;2.62;;;;;;;13.67;96.38;99266.59;1617027;86;20982;-66
2022/11/08 10:21:46;;;;;;;9.10;3.05;;;;;;;13.71;96.06;99268.52;1648061;85;20943;-65
2022/11/08 10:24:34;;;;;;;4.50;2.27;;;;;;;13.81;96.35;99261.72;1672656;85;21009;-66
2022/11/08 10:27:02;;;;;;;6.37;3.58;;;;;;;14.08;96.54;99258.48;1622986;86;22433;-65
2022/11/08 10:29:34;;;;;;;5.55;3.37;;;;;;;14.25;96.15;99265.20;1625083;86;20993;-65
2022/11/08 10:32:20;;;;;;;9.63;3.37;;;;;;;14.31;96.14;99261.30;1624454;86;20997;-65
2022/11/08 10:34:55;;;;;;;7.20;2.90;;;;;;;14.36;95.58;99260.98;1625335;86;20950;-65
2022/11/08 10:37:23;;;;;;;9.05;2.80;;;;;;;14.24;94.62;99257.44;1645487;85;21499;-65
2022/11/08 10:40:00;;;;;;;4.80;2.70;;;;;;;14.18;94.92;99253.94;1647997;84;20937;-66
2022/11/08 10:42:45;;;;;;;;;;;;;;;14.15;94.91;99258.09;1640727;85;20958;-66
2022/11/08 10:45:14;;;;;;;9.00;3.20;;;;;;;14.10;94.58;99251.36;1644653;85;20119;-66
2022/11/08 10:47:44;;;;;;;8.40;2.52;;;;;;;14.13;95.08;99254.72;1653973;84;20919;-65
2022/11/08 10:50:18;;;;;;;8.70;3.52;;;;;;;14.22;95.39;99244.88;1652430;84;21011;-66
2022/11/08 10:52:58;;;;;;;7.10;3.12;;;;;;;14.23;94.58;99247.90;1653233;84;21010;-65
2022/11/08 10:55:35;;;;;;;6.10;2.60;;;;;;;14.22;94.37;99243.58;1657301;84;20985;-65
2022/11/08 10:58:03;;;;;;;9.50;3.10;;;;;;;14.24;94.24;99244.31;1653286;84;20942;-65
2022/11/08 11:00:32;;;;;;;5.30;2.50;;;;;;;14.30;94.45;99238.63;1634963;84;20979;-65
2022/11/08 11:03:12;;;;;;;10.28;2.87;;;;;;;14.28;93.98;99238.75;1644277;84;22382;-66
2022/11/08 11:05:47;;;;;;;6.75;2.37;;;;;;;14.29;94.37;99235.16;1688981;83;20963;-65
2022/11/08 11:08:16;;;;;;;6.45;2.62;;;;;;;14.30;93.78;99242.56;1683073;83;20950;-65
2022/11/08 11:10:47;;;;;;;5.45;2.25;;;;;;;14.26;93.96;99242.42;1691519;83;21480;-67
2022/11/08 11:13:22;;;;;;;6.78;2.42;;;;;;;14.37;94.18;99239.02;1694021;84;20890;-66
2022/11/08 11:15:59;;;;;;;8.63;2.30;;;;;;;14.34;93.35;99234.85;1687546;84;21816;-67
2022/11/08 11:18:35;;;;;;;6.42;2.30;;;;;;;14.32;93.21;99239.36;1695114;84;24674;-67
2022/11/08 11:21:09;;;;;;;6.95;2.55;;;;;;;14.31;93.67;99240.29;1670888;84;20930;-67
2022/11/08 11:23:40;;;;;;;4.70;2.22;;;;;;;14.30;93.09;99236.00;1690792;83;20966;-66
2022/11/08 11:26:11;;;;;;;6.37;2.02;;;;;;;14.23;92.82;99227.72;1699897;84;20946;-67
2022/11/08 11:29:00;;;;;;;5.50;2.15;;;;;;;14.19;92.34;99234.59;1674030;84;21743;-67
2022/11/08 11:31:26;;;;;;;3.98;1.72;;;;;;;14.14;92.49;99232.77;1673647;84;21110;-69
2022/11/08 11:33:53;;;;;;;7.55;2.70;;;;;;;14.17;92.93;99227.30;1666527;85;21118;-65
2022/11/08 11:36:23;;;;;;;9.00;2.45;;;;;;;14.17;92.58;99232.55;1664704;85;20972;-68
2022/11/08 11:39:03;;;;;;;6.10;2.22;;;;;;;14.19;92.73;99234.59;1664473;85;21026;-68
2022/11/08 11:41:41;;;;;;;3.37;1.70;;;;;;;14.19;92.37;99234.59;1657150;85;21082;-67
2022/11/08 11:44:21;;;;;;;7.70;2.40;;;;;;;14.17;92.27;99231.23;1654180;86;20976;-66
2022/11/08 11:47:17;;;;;;;4.20;2.52;;;;;;;14.15;91.94;99234.46;1650610;86;20995;-67
2022/11/08 11:49:46;;;;;;;7.10;2.40;;;;;;;14.15;91.76;99232.67;1654016;86;21397;-67
2022/11/08 11:52:16;;;;;;;7.10;2.27;;;;;;;14.12;91.64;99232.05;1655662;85;21008;-68
2022/11/08 11:54:47;;;;;;;6.17;2.00;;;;;;;14.06;91.52;99234.16;1651332;86;21063;-66
2022/11/08 11:57:34;;;;;;;3.60;1.85;;;;;;;14.06;91.99;99236.78;1655221;86;20953;-64
2022/11/08 12:00:11;;;;;;;6.83;1.90;;;;;;;14.08;91.49;99237.48;1652178;86;20984;-68
2022/11/08 12:02:48;;;;;;;;;;;;;;;14.06;91.71;99239.41;1654084;86;20976;-66
2022/11/08 12:05:31;;;;;;;4.45;2.45;;;;;;;14.05;91.32;99244.75;1658486;84;20106;-66
2022/11/08 12:08:30;;;;;;;13.03;2.27;;;;;;;14.06;90.85;99243.34;1661176;85;21067;-65
2022/11/08 12:11:18;;;;;;;2.80;1.62;;;;;;;13.99;90.71;99235.51;1658454;85;21006;-66
2022/11/08 12:14:05;;;;;;;6.30;2.52;;;;;;;13.94;90.92;99242.02;1658284;85;24438;-66
2022/11/08 12:16:46;;;;;;;;;;;;;;;13.93;90.45;99238.56;1647313;86;21123;-66
2022/11/08 12:19:34;;;;;;;4.72;1.92;;;;;;;13.86;90.54;99235.98;1643822;86;20491;-66
2022/11/08 12:22:18;;;;;;;5.53;2.45;;;;;;;13.88;90.23;99239.34;1614032;87;21079;-66